createdAt,value
2022-08-23T00:00:38.853Z,99.90
2022-08-23T00:03:31.065Z,99.90
2022-08-23T00:06:25.040Z,99.90
2022-08-23T00:09:18.927Z,99.90
2022-08-23T00:12:13.904Z,99.90
2022-08-23T00:15:21.678Z,99.90
2022-08-23T00:18:14.283Z,99.90
2022-08-23T00:21:04.619Z,99.90
2022-08-23T00:24:01.279Z,99.90
2022-08-23T00:26:58.582Z,99.90
2022-08-23T00:29:49.374Z,99.90
2022-08-23T00:32:39.242Z,99.90
2022-08-23T00:35:27.722Z,99.90
2022-08-23T00:38:34.215Z,99.90
2022-08-23T00:41:35.753Z,99.90
2022-08-23T00:44:49.725Z,99.90
2022-08-23T00:47:56.666Z,99.90
2022-08-23T00:50:55.448Z,99.90
2022-08-23T00:53:48.460Z,99.90
2022-08-23T00:56:47.899Z,99.90
2022-08-23T00:59:41.062Z,99.90
2022-08-23T01:02:31.764Z,99.90
2022-08-23T01:05:28.801Z,99.90
2022-08-23T01:08:24.160Z,99.90
2022-08-23T01:11:24.955Z,99.90
2022-08-23T01:14:17.770Z,99.90
2022-08-23T01:17:34.682Z,99.90
2022-08-23T01:20:26.849Z,99.90
2022-08-23T01:23:39.859Z,99.90
2022-08-23T01:26:28.772Z,99.90
2022-08-23T01:29:18.708Z,99.90
2022-08-23T01:32:07.625Z,99.90
2022-08-23T01:35:08.008Z,99.90
2022-08-23T01:38:03.501Z,99.90
2022-08-23T01:40:55.538Z,99.90
2022-08-23T01:43:46.601Z,99.90
2022-08-23T01:46:34.826Z,99.90
2022-08-23T01:49:25.105Z,99.90
2022-08-23T01:52:17.259Z,99.90
2022-08-23T01:55:08.506Z,99.90
2022-08-23T01:58:11.663Z,99.90
2022-08-23T02:01:06.161Z,99.90
2022-08-23T02:04:04.222Z,99.90
2022-08-23T02:06:53.550Z,99.90
2022-08-23T02:09:41.917Z,99.90
2022-08-23T02:12:39.115Z,99.90
2022-08-23T02:15:51.214Z,99.90
2022-08-23T02:18:39.834Z,99.90
2022-08-23T02:21:28.614Z,99.90
2022-08-23T02:24:18.572Z,99.90
2022-08-23T02:27:25.302Z,99.90
2022-08-23T02:30:18.446Z,99.90
2022-08-23T02:33:21.696Z,99.90
2022-08-23T02:36:10.493Z,99.90
2022-08-23T02:39:00.942Z,99.90
2022-08-23T02:41:51.904Z,99.90
2022-08-23T02:44:40.382Z,99.90
2022-08-23T02:47:40.861Z,99.90
2022-08-23T02:50:44.379Z,99.90
2022-08-23T02:53:51.367Z,99.90
2022-08-23T02:56:59.960Z,99.90
2022-08-23T03:00:20.324Z,99.90
2022-08-23T03:03:14.513Z,99.90
2022-08-23T03:06:25.575Z,99.90
2022-08-23T03:09:18.749Z,99.90
2022-08-23T03:12:20.895Z,99.90
2022-08-23T03:15:12.749Z,99.90
2022-08-23T03:18:04.015Z,99.90
2022-08-23T03:20:52.160Z,99.90
2022-08-23T03:23:53.856Z,99.90
2022-08-23T03:26:49.466Z,99.90
2022-08-23T03:29:38.059Z,99.90
2022-08-23T03:32:34.670Z,99.90
2022-08-23T03:35:25.534Z,99.90
2022-08-23T03:38:40.504Z,99.90
2022-08-23T03:41:30.181Z,99.90
2022-08-23T03:44:21.303Z,99.90
2022-08-23T03:47:09.555Z,99.90
2022-08-23T03:49:57.756Z,99.90
2022-08-23T03:52:46.952Z,99.90
2022-08-23T03:55:42.677Z,99.90
2022-08-23T03:58:33.609Z,99.90
2022-08-23T04:01:28.439Z,99.90
2022-08-23T04:04:17.667Z,99.90
2022-08-23T04:07:09.712Z,99.90
2022-08-23T04:09:57.969Z,99.90
2022-08-23T04:12:54.709Z,99.90
2022-08-23T04:15:49.921Z,99.90
2022-08-23T04:18:41.171Z,99.90
2022-08-23T04:21:29.491Z,99.90
2022-08-23T04:24:33.366Z,99.90
2022-08-23T04:27:24.608Z,99.90
2022-08-23T04:30:13.884Z,99.90
2022-08-23T04:33:17.860Z,99.90
2022-08-23T04:36:09.435Z,99.90
2022-08-23T04:38:57.615Z,99.90
2022-08-23T04:42:24.382Z,99.90
2022-08-23T04:45:12.572Z,99.90
2022-08-23T04:48:02.991Z,99.90
2022-08-23T04:50:54.725Z,99.90
2022-08-23T04:53:50.938Z,99.90
2022-08-23T04:56:39.912Z,99.90
2022-08-23T04:59:40.950Z,99.90
2022-08-23T05:02:31.092Z,99.90
2022-08-23T05:05:21.057Z,99.90
2022-08-23T05:08:17.475Z,99.90
2022-08-23T05:11:11.956Z,99.90
2022-08-23T05:14:07.271Z,99.90
2022-08-23T05:17:12.867Z,99.90
2022-08-23T05:20:06.402Z,99.90
2022-08-23T05:22:54.645Z,99.90
2022-08-23T05:26:01.929Z,99.90
2022-08-23T05:28:53.058Z,99.90
2022-08-23T05:31:44.248Z,99.90
2022-08-23T05:35:08.667Z,99.90
2022-08-23T05:37:59.645Z,99.90
2022-08-23T05:40:54.895Z,99.90
2022-08-23T05:44:22.411Z,99.90
2022-08-23T05:50:42.363Z,99.90
2022-08-23T05:53:31.043Z,99.90
2022-08-23T05:57:00.424Z,99.90
2022-08-23T06:00:08.012Z,99.90
2022-08-23T06:03:00.504Z,99.90
2022-08-23T06:05:49.769Z,99.90
2022-08-23T06:08:40.098Z,99.90
2022-08-23T06:11:31.015Z,99.90
2022-08-23T06:14:19.371Z,99.90
2022-08-23T06:17:07.639Z,99.90
2022-08-23T06:19:55.962Z,99.90
2022-08-23T06:22:44.150Z,99.90
2022-08-23T06:25:32.335Z,99.90
2022-08-23T06:28:25.627Z,99.90
2022-08-23T06:31:14.298Z,99.90
2022-08-23T06:34:02.543Z,99.90
2022-08-23T06:36:53.425Z,99.90
2022-08-23T06:39:42.166Z,99.90
2022-08-23T06:42:38.184Z,99.90
2022-08-23T06:45:33.748Z,99.90
2022-08-23T06:48:23.624Z,99.90
2022-08-23T06:51:13.979Z,99.90
2022-08-23T06:54:06.554Z,99.90
2022-08-23T06:56:55.106Z,99.90
2022-08-23T06:59:43.337Z,99.90
2022-08-23T07:02:32.975Z,99.90
2022-08-23T07:05:21.620Z,99.90
2022-08-23T07:08:09.880Z,99.90
2022-08-23T07:10:58.359Z,99.90
2022-08-23T07:13:47.031Z,99.90
2022-08-23T07:16:36.962Z,99.90
2022-08-23T07:19:29.409Z,99.90
2022-08-23T07:22:20.587Z,99.90
2022-08-23T07:25:09.271Z,99.90
2022-08-23T07:27:57.517Z,99.90
2022-08-23T07:30:45.893Z,99.90
2022-08-23T07:33:34.147Z,99.90
2022-08-23T07:36:29.616Z,99.90
2022-08-23T07:39:19.489Z,99.90
2022-08-23T07:42:22.711Z,99.90
2022-08-23T07:45:12.945Z,99.90
2022-08-23T07:48:02.070Z,99.90
2022-08-23T07:50:57.938Z,99.90
2022-08-23T07:53:47.999Z,99.90
2022-08-23T07:56:37.271Z,99.90
2022-08-23T07:59:25.656Z,99.90
2022-08-23T08:02:14.146Z,99.90
2022-08-23T08:05:02.467Z,99.90
2022-08-23T08:07:50.759Z,99.90
2022-08-23T08:10:43.986Z,99.90
2022-08-23T08:13:38.987Z,99.90
2022-08-23T08:16:29.735Z,99.90
2022-08-23T08:19:19.935Z,99.90
2022-08-23T08:22:08.783Z,99.90
2022-08-23T08:24:57.663Z,99.90
2022-08-23T08:27:48.144Z,99.90
2022-08-23T08:30:36.504Z,99.90
2022-08-23T08:33:30.855Z,99.90
2022-08-23T08:36:37.001Z,99.90
2022-08-23T08:39:28.977Z,99.90
2022-08-23T08:42:32.394Z,99.90
2022-08-23T08:45:26.568Z,99.90
2022-08-23T08:48:17.515Z,99.90
2022-08-23T08:51:18.072Z,99.90
2022-08-23T08:54:13.519Z,99.90
2022-08-23T08:57:02.636Z,99.90
2022-08-23T08:59:59.754Z,99.90
2022-08-23T09:02:50.339Z,99.90
2022-08-23T09:05:40.556Z,99.90
2022-08-23T09:08:45.869Z,99.90
2022-08-23T09:11:47.696Z,99.90
2022-08-23T09:15:06.881Z,99.90
2022-08-23T09:17:58.481Z,99.90
2022-08-23T09:20:51.472Z,99.90
2022-08-23T09:23:42.783Z,99.90
2022-08-23T09:26:32.193Z,99.90
2022-08-23T09:29:23.461Z,99.90
2022-08-23T09:32:28.800Z,99.90
2022-08-23T09:35:23.610Z,99.90
2022-08-23T09:38:20.922Z,99.90
2022-08-23T09:41:19.151Z,99.90
2022-08-23T09:44:13.638Z,99.90
2022-08-23T09:47:08.460Z,99.90
2022-08-23T09:49:56.634Z,99.90
2022-08-23T09:52:48.836Z,99.90
2022-08-23T09:55:42.555Z,99.90
2022-08-23T09:58:36.900Z,99.90
2022-08-23T10:01:30.207Z,99.90
2022-08-23T10:04:24.442Z,99.90
2022-08-23T10:07:30.380Z,99.90
2022-08-23T10:10:33.058Z,99.90
2022-08-23T10:13:21.832Z,99.90
2022-08-23T10:16:22.466Z,99.90
2022-08-23T10:19:19.048Z,99.90
2022-08-23T10:22:16.022Z,99.90
2022-08-23T10:25:14.204Z,99.90
2022-08-23T10:28:31.543Z,99.90
2022-08-23T10:31:36.025Z,99.90
2022-08-23T10:34:41.530Z,99.90
2022-08-23T10:37:48.050Z,99.90
2022-08-23T10:40:43.348Z,99.90
2022-08-23T10:43:39.714Z,99.90
2022-08-23T10:46:31.210Z,99.90
2022-08-23T10:49:21.141Z,99.90
2022-08-23T10:52:13.869Z,99.90
2022-08-23T10:55:17.214Z,99.90
2022-08-23T10:58:08.651Z,99.90
2022-08-23T11:01:00.369Z,99.90
2022-08-23T11:04:00.590Z,99.90
2022-08-23T11:06:52.269Z,99.90
2022-08-23T11:09:51.206Z,99.90
2022-08-23T11:12:54.473Z,99.90
2022-08-23T11:15:45.857Z,99.90
2022-08-23T11:18:41.954Z,99.90
2022-08-23T11:22:15.421Z,99.90
2022-08-23T11:25:09.860Z,99.90
2022-08-23T11:28:45.094Z,99.90
2022-08-23T11:31:38.238Z,99.90
2022-08-23T11:34:31.818Z,99.90
2022-08-23T11:37:49.313Z,99.90
2022-08-23T11:40:41.739Z,99.90
2022-08-23T11:43:34.591Z,99.90
2022-08-23T11:46:59.262Z,99.90
2022-08-23T11:50:12.994Z,99.90
2022-08-23T11:53:22.676Z,99.90
2022-08-23T11:56:23.465Z,99.90
2022-08-23T11:59:29.981Z,99.90
2022-08-23T12:02:49.961Z,99.90
2022-08-23T12:06:08.224Z,99.90
2022-08-23T12:09:01.856Z,99.90
2022-08-23T12:12:24.957Z,99.90
2022-08-23T12:15:14.254Z,99.90
2022-08-23T12:18:20.528Z,99.90
2022-08-23T12:21:22.014Z,99.90
2022-08-23T12:24:18.229Z,99.90
2022-08-23T12:27:13.738Z,99.90
2022-08-23T12:30:07.384Z,99.90
2022-08-23T12:33:06.322Z,99.90
2022-08-23T12:36:05.585Z,99.90
2022-08-23T12:39:08.442Z,99.90
2022-08-23T12:42:00.016Z,99.90
2022-08-23T12:45:01.318Z,99.90
2022-08-23T12:47:58.145Z,99.90
2022-08-23T12:50:53.557Z,99.90
2022-08-23T12:53:46.130Z,99.90
2022-08-23T12:56:34.785Z,99.90
2022-08-23T12:59:37.104Z,99.90
2022-08-23T13:02:28.735Z,99.90
2022-08-23T13:05:23.790Z,99.90
2022-08-23T13:08:19.699Z,99.90
2022-08-23T13:11:21.501Z,99.90
2022-08-23T13:14:26.297Z,99.90
2022-08-23T13:17:23.674Z,99.90
2022-08-23T13:20:18.823Z,99.90
2022-08-23T13:23:10.297Z,99.90
2022-08-23T13:26:18.520Z,99.90
2022-08-23T13:29:22.125Z,99.10
2022-08-23T13:32:36.416Z,98.80
2022-08-23T13:35:36.366Z,98.60
2022-08-23T13:38:27.074Z,98.30
2022-08-23T13:41:31.532Z,97.30
2022-08-23T13:44:23.690Z,95.70
2022-08-23T13:47:24.034Z,96.50
2022-08-23T13:50:17.986Z,96.30
2022-08-23T13:53:15.355Z,95.10
2022-08-23T13:56:04.405Z,95.50
2022-08-23T13:58:58.094Z,94.80
2022-08-23T14:01:47.715Z,94.50
2022-08-23T14:04:38.205Z,93.00
2022-08-23T14:07:26.594Z,92.30
2022-08-23T14:10:15.449Z,92.70
2022-08-23T14:13:08.162Z,91.80
2022-08-23T14:19:18.020Z,90.00
2022-08-23T14:22:21.226Z,87.10
2022-08-23T14:25:10.920Z,84.60
2022-08-23T14:27:59.734Z,85.10
2022-08-23T14:30:48.434Z,85.40
2022-08-23T14:33:36.779Z,82.90
2022-08-23T14:36:26.443Z,83.90
2022-08-23T14:42:08.046Z,84.50
2022-08-23T14:44:56.269Z,82.20
2022-08-23T14:47:44.592Z,82.60
2022-08-23T14:50:35.724Z,80.80
2022-08-23T14:53:30.321Z,78.30
2022-08-23T14:56:21.428Z,77.10
2022-08-23T14:59:11.931Z,78.30
2022-08-23T15:02:00.857Z,74.30
2022-08-23T15:04:55.657Z,75.40
2022-08-23T15:07:44.118Z,74.40
2022-08-23T15:13:55.301Z,76.20
2022-08-23T15:16:44.405Z,76.60
2022-08-23T15:19:32.645Z,74.70
2022-08-23T15:22:22.085Z,76.40
2022-08-23T15:25:10.713Z,76.00
2022-08-23T15:28:01.843Z,76.10
2022-08-23T15:30:51.360Z,77.10
2022-08-23T15:33:39.877Z,77.70
2022-08-23T15:36:29.220Z,77.00
2022-08-23T15:39:17.938Z,76.30
2022-08-23T15:42:06.762Z,77.40
2022-08-23T15:44:58.042Z,78.10
2022-08-23T15:47:48.925Z,78.50
2022-08-23T15:50:38.841Z,78.70
2022-08-23T15:53:27.665Z,79.30
2022-08-23T15:56:19.750Z,80.20
2022-08-23T15:59:11.396Z,79.90
2022-08-23T16:02:00.996Z,79.00
2022-08-23T16:04:51.054Z,79.60
2022-08-23T16:07:40.652Z,80.20
2022-08-23T16:10:31.153Z,81.10
2022-08-23T16:13:20.176Z,81.90
2022-08-23T16:16:15.140Z,81.70
2022-08-23T16:19:05.582Z,82.40
2022-08-23T16:21:54.339Z,83.80
2022-08-23T16:24:43.160Z,83.30
2022-08-23T16:27:31.514Z,83.90
2022-08-23T16:30:19.785Z,84.30
2022-08-23T16:33:08.076Z,84.80
2022-08-23T16:35:57.669Z,85.00
2022-08-23T16:38:46.456Z,83.90
2022-08-23T16:41:34.708Z,85.70
2022-08-23T16:44:23.152Z,86.30
2022-08-23T16:47:12.669Z,87.00
2022-08-23T16:50:00.893Z,86.00
2022-08-23T16:52:50.502Z,86.70
2022-08-23T16:55:39.835Z,86.60
2022-08-23T16:58:28.755Z,87.20
2022-08-23T17:01:19.657Z,86.90
2022-08-23T17:04:08.001Z,86.60
2022-08-23T17:06:56.573Z,87.30
2022-08-23T17:09:46.662Z,87.90
2022-08-23T17:12:36.261Z,88.60
2022-08-23T17:15:27.876Z,88.40
2022-08-23T17:18:16.057Z,88.80
2022-08-23T17:21:04.747Z,89.70
2022-08-23T17:23:53.209Z,90.10
2022-08-23T17:26:43.023Z,90.40
2022-08-23T17:29:37.275Z,90.30
2022-08-23T17:32:25.957Z,91.00
2022-08-23T17:35:15.251Z,91.10
2022-08-23T17:38:04.276Z,91.30
2022-08-23T17:40:52.714Z,91.00
2022-08-23T17:43:42.253Z,91.50
2022-08-23T17:46:30.536Z,91.80
2022-08-23T17:49:20.277Z,92.00
2022-08-23T17:52:09.035Z,92.20
2022-08-23T17:54:58.056Z,92.40
2022-08-23T17:57:48.338Z,92.50
2022-08-23T18:00:40.263Z,92.80
2022-08-23T18:03:30.620Z,92.50
2022-08-23T18:06:19.157Z,93.30
2022-08-23T18:09:11.408Z,93.20
2022-08-23T18:11:59.682Z,93.50
2022-08-23T18:14:47.890Z,93.40
2022-08-23T18:17:38.763Z,93.50
2022-08-23T18:20:27.788Z,93.70
2022-08-23T18:23:17.302Z,94.40
2022-08-23T18:26:07.270Z,94.40
2022-08-23T18:28:55.357Z,94.50
2022-08-23T18:31:45.033Z,94.80
2022-08-23T18:34:34.882Z,95.10
2022-08-23T18:37:23.122Z,95.70
2022-08-23T18:40:12.230Z,95.80
2022-08-23T18:43:00.562Z,96.50
2022-08-23T18:45:52.178Z,96.50
2022-08-23T18:48:40.802Z,96.80
2022-08-23T18:51:31.494Z,97.40
2022-08-23T18:54:19.762Z,98.00
2022-08-23T18:57:08.059Z,98.70
2022-08-23T19:00:05.916Z,98.90
2022-08-23T19:02:54.257Z,99.20
2022-08-23T19:05:43.164Z,99.80
2022-08-23T19:08:32.714Z,99.80
2022-08-23T19:11:21.981Z,99.90
2022-08-23T19:14:12.611Z,99.90
2022-08-23T19:17:03.491Z,99.90
2022-08-23T19:19:51.725Z,99.90
2022-08-23T19:22:39.940Z,99.90
2022-08-23T19:25:31.647Z,99.90
2022-08-23T19:28:19.999Z,99.90
2022-08-23T19:31:09.284Z,99.90
2022-08-23T19:33:59.418Z,99.90
2022-08-23T19:37:00.357Z,99.90
2022-08-23T19:39:52.833Z,99.90
2022-08-23T19:42:43.721Z,99.90
2022-08-23T19:45:38.575Z,99.90
2022-08-23T19:48:26.785Z,99.90
2022-08-23T19:51:23.433Z,99.90
2022-08-23T19:54:13.137Z,99.90
2022-08-23T19:57:02.547Z,99.90
2022-08-23T19:59:52.134Z,99.90
2022-08-23T20:02:40.397Z,99.90
2022-08-23T20:05:30.965Z,99.90
2022-08-23T20:08:19.391Z,99.90
2022-08-23T20:11:07.968Z,99.90
2022-08-23T20:13:56.746Z,99.90
2022-08-23T20:16:46.393Z,99.90
2022-08-23T20:19:37.205Z,99.90
2022-08-23T20:22:43.175Z,99.90
2022-08-23T20:25:31.424Z,99.90
2022-08-23T20:28:26.298Z,99.90
2022-08-23T20:31:18.954Z,99.90
2022-08-23T20:34:09.830Z,99.90
2022-08-23T20:37:00.936Z,99.90
2022-08-23T20:39:52.311Z,99.90
2022-08-23T20:42:43.460Z,99.90
2022-08-23T20:45:34.396Z,99.90
2022-08-23T20:48:23.193Z,99.90
2022-08-23T20:51:14.696Z,99.90
2022-08-23T20:54:08.205Z,99.90
2022-08-23T20:56:56.420Z,99.90
2022-08-23T20:59:45.302Z,99.90
2022-08-23T21:02:35.731Z,99.90
2022-08-23T21:05:25.955Z,99.90
2022-08-23T21:08:16.051Z,99.90
2022-08-23T21:11:08.340Z,99.90
2022-08-23T21:13:58.793Z,99.90
2022-08-23T21:16:47.817Z,99.90
2022-08-23T21:19:38.260Z,99.90
2022-08-23T21:22:32.136Z,99.90
2022-08-23T21:25:22.368Z,99.90
2022-08-23T21:28:11.227Z,99.90
2022-08-23T21:31:06.889Z,99.90
2022-08-23T21:33:56.016Z,99.90
2022-08-23T21:36:45.795Z,99.90
2022-08-23T21:39:34.177Z,99.90
2022-08-23T21:42:24.953Z,99.90
2022-08-23T21:45:13.286Z,99.90
2022-08-23T21:48:08.687Z,99.90
2022-08-23T21:50:56.906Z,99.90
2022-08-23T21:53:45.420Z,99.90
2022-08-23T21:56:33.658Z,99.90
2022-08-23T21:59:23.562Z,99.90
2022-08-23T22:02:11.823Z,99.90
2022-08-23T22:05:04.375Z,99.90
2022-08-23T22:07:54.786Z,99.90
2022-08-23T22:10:57.122Z,99.90
2022-08-23T22:13:47.167Z,99.90
2022-08-23T22:16:37.295Z,99.90
2022-08-23T22:19:27.331Z,99.90
2022-08-23T22:22:18.250Z,99.90
2022-08-23T22:25:08.815Z,99.90
2022-08-23T22:28:00.706Z,99.90
2022-08-23T22:30:52.954Z,99.90
2022-08-23T22:33:45.088Z,99.90
2022-08-23T22:36:33.974Z,99.90
2022-08-23T22:39:22.598Z,99.90
2022-08-23T22:42:10.753Z,99.90
2022-08-23T22:44:58.934Z,99.90
2022-08-23T22:47:55.890Z,99.90
2022-08-23T22:51:13.183Z,99.90
2022-08-23T22:54:06.336Z,99.90
2022-08-23T22:56:55.103Z,99.90
2022-08-23T22:59:45.034Z,99.90
2022-08-23T23:02:33.283Z,99.90
2022-08-23T23:05:25.185Z,99.90
2022-08-23T23:08:32.278Z,99.90
2022-08-23T23:11:22.647Z,99.90
2022-08-23T23:14:11.572Z,99.90
2022-08-23T23:17:01.171Z,99.90
2022-08-23T23:20:33.034Z,99.90
2022-08-23T23:23:23.642Z,99.90
2022-08-23T23:26:14.607Z,99.90
2022-08-23T23:29:04.637Z,99.90
2022-08-23T23:31:52.848Z,99.90
2022-08-23T23:34:41.147Z,99.90
2022-08-23T23:37:30.192Z,99.90
2022-08-23T23:40:20.575Z,99.90
2022-08-23T23:43:12.963Z,99.90
2022-08-23T23:46:05.969Z,99.90
2022-08-23T23:49:00.204Z,99.90
2022-08-23T23:51:53.019Z,99.90
2022-08-23T23:54:41.226Z,99.90
2022-08-23T23:57:35.928Z,99.90
